createdAt,value
2023-03-27T00:01:33.100Z,67.79
2023-03-27T00:04:03.788Z,67.39
2023-03-27T00:06:34.911Z,67.39
2023-03-27T00:09:06.476Z,65.78
2023-03-27T00:11:35.062Z,64.94
2023-03-27T00:14:08.424Z,64.06
2023-03-27T00:16:44.764Z,64.09
2023-03-27T00:19:15.149Z,63.80
2023-03-27T00:21:48.979Z,63.71
2023-03-27T00:24:17.534Z,62.49
2023-03-27T00:26:45.379Z,62.28
2023-03-27T00:29:13.637Z,61.89
2023-03-27T00:31:43.582Z,62.00
2023-03-27T00:34:13.687Z,62.23
2023-03-27T00:36:43.968Z,61.47
2023-03-27T00:39:11.892Z,60.44
2023-03-27T00:41:45.687Z,60.47
2023-03-27T00:44:34.744Z,60.50
2023-03-27T00:47:05.776Z,60.30
2023-03-27T00:49:36.849Z,60.07
2023-03-27T00:52:09.058Z,59.77
2023-03-27T00:54:39.476Z,60.41
2023-03-27T00:57:13.209Z,59.71
2023-03-27T00:59:50.317Z,60.17
2023-03-27T01:02:21.081Z,59.30
2023-03-27T01:04:51.013Z,60.39
2023-03-27T01:07:23.026Z,59.41
2023-03-27T01:09:53.964Z,59.65
2023-03-27T01:12:56.974Z,59.91
2023-03-27T01:15:24.809Z,59.65
2023-03-27T01:18:43.084Z,59.43
2023-03-27T01:21:16.783Z,59.62
2023-03-27T01:24:15.251Z,59.70
2023-03-27T01:26:58.404Z,58.79
2023-03-27T01:30:05.909Z,56.74
2023-03-27T01:32:54.265Z,57.06
2023-03-27T01:35:52.769Z,54.82
2023-03-27T01:38:41.494Z,55.65
2023-03-27T01:41:21.420Z,55.29
2023-03-27T01:43:54.402Z,54.16
2023-03-27T01:46:46.316Z,55.00
2023-03-27T01:49:24.953Z,54.97
2023-03-27T01:52:05.104Z,54.56
2023-03-27T01:54:39.960Z,53.17
2023-03-27T01:57:48.761Z,53.90
2023-03-27T02:00:22.786Z,52.60
2023-03-27T02:02:58.313Z,53.60
2023-03-27T02:05:36.064Z,52.57
2023-03-27T02:08:36.149Z,52.57
2023-03-27T02:11:23.799Z,52.95
2023-03-27T02:13:57.746Z,52.82
2023-03-27T02:16:34.865Z,52.17
2023-03-27T02:19:08.537Z,52.49
2023-03-27T02:21:36.220Z,52.68
2023-03-27T02:24:09.579Z,53.03
2023-03-27T02:26:39.203Z,51.95
2023-03-27T02:29:15.618Z,51.33
2023-03-27T02:31:57.865Z,52.90
2023-03-27T02:34:38.489Z,51.99
2023-03-27T02:37:21.635Z,51.77
2023-03-27T02:40:40.245Z,51.23
2023-03-27T02:43:59.662Z,51.31
2023-03-27T02:46:52.375Z,51.77
2023-03-27T02:49:31.734Z,51.44
2023-03-27T02:52:12.870Z,51.14
2023-03-27T02:54:47.131Z,52.11
2023-03-27T02:57:24.942Z,52.15
2023-03-27T03:00:26.396Z,52.87
2023-03-27T03:03:28.277Z,52.48
2023-03-27T03:06:11.644Z,52.93
2023-03-27T03:08:47.231Z,52.51
2023-03-27T03:11:15.966Z,53.63
2023-03-27T03:13:44.437Z,52.69
2023-03-27T03:16:13.532Z,53.20
2023-03-27T03:18:42.076Z,52.78
2023-03-27T03:21:11.232Z,53.36
2023-03-27T03:23:39.800Z,53.20
2023-03-27T03:26:07.867Z,53.25
2023-03-27T03:29:00.661Z,52.67
2023-03-27T03:31:44.794Z,53.47
2023-03-27T03:34:19.013Z,52.82
2023-03-27T03:36:49.747Z,52.78
2023-03-27T03:39:23.288Z,53.76
2023-03-27T03:41:51.308Z,53.04
2023-03-27T03:44:19.784Z,53.00
2023-03-27T03:46:47.885Z,53.80
2023-03-27T03:49:23.226Z,53.85
2023-03-27T03:52:03.370Z,53.40
2023-03-27T03:54:33.232Z,54.21
2023-03-27T03:57:01.431Z,53.74
2023-03-27T03:59:30.395Z,53.44
2023-03-27T04:02:28.785Z,53.60
2023-03-27T04:05:21.416Z,54.06
2023-03-27T04:07:56.414Z,53.95
2023-03-27T04:10:41.611Z,53.47
2023-03-27T04:13:18.923Z,54.66
2023-03-27T04:16:05.015Z,54.74
2023-03-27T04:18:41.379Z,54.76
2023-03-27T04:21:16.416Z,53.98
2023-03-27T04:23:51.566Z,54.78
2023-03-27T04:26:30.344Z,54.59
2023-03-27T04:29:26.307Z,53.09
2023-03-27T04:32:01.144Z,53.51
2023-03-27T04:34:46.814Z,53.02
2023-03-27T04:37:36.758Z,54.06
2023-03-27T04:40:15.382Z,53.92
2023-03-27T04:42:47.190Z,53.27
2023-03-27T04:45:20.793Z,54.16
2023-03-27T04:47:55.053Z,53.95
2023-03-27T04:50:27.006Z,53.66
2023-03-27T04:52:58.858Z,54.62
2023-03-27T04:55:31.058Z,54.23
2023-03-27T04:58:02.640Z,55.19
2023-03-27T05:00:30.618Z,54.89
2023-03-27T05:03:13.048Z,53.93
2023-03-27T05:05:53.250Z,54.35
2023-03-27T05:08:20.112Z,54.79
2023-03-27T05:10:47.178Z,54.23
2023-03-27T05:13:17.457Z,55.30
2023-03-27T05:15:44.936Z,55.60
2023-03-27T05:18:16.188Z,55.24
2023-03-27T05:20:49.831Z,54.87
2023-03-27T05:23:17.748Z,55.06
2023-03-27T05:26:00.138Z,54.85
2023-03-27T05:28:40.048Z,54.99
2023-03-27T05:31:11.066Z,55.27
2023-03-27T05:33:50.443Z,55.09
2023-03-27T05:36:19.180Z,54.51
2023-03-27T05:38:49.618Z,54.55
2023-03-27T05:41:33.057Z,55.28
2023-03-27T05:44:02.592Z,55.26
2023-03-27T05:46:43.394Z,54.89
2023-03-27T05:49:17.223Z,55.03
2023-03-27T05:51:48.361Z,54.39
2023-03-27T05:54:20.323Z,55.15
2023-03-27T05:56:53.025Z,55.12
2023-03-27T05:59:20.360Z,54.17
2023-03-27T06:01:49.657Z,54.77
2023-03-27T06:04:26.238Z,54.58
2023-03-27T06:07:06.300Z,54.56
2023-03-27T06:09:37.722Z,54.14
2023-03-27T06:12:25.267Z,54.49
2023-03-27T06:14:59.857Z,54.70
2023-03-27T06:17:40.586Z,54.00
2023-03-27T06:20:28.640Z,53.63
2023-03-27T06:22:59.752Z,53.52
2023-03-27T06:25:33.540Z,53.59
2023-03-27T06:28:02.380Z,53.50
2023-03-27T06:30:31.794Z,53.66
2023-03-27T06:33:22.383Z,52.47
2023-03-27T06:35:53.972Z,51.90
2023-03-27T06:38:33.223Z,50.44
2023-03-27T06:41:01.593Z,49.98
2023-03-27T06:44:00.932Z,49.76
2023-03-27T06:46:48.156Z,49.21
2023-03-27T06:49:51.057Z,49.06
2023-03-27T06:52:29.498Z,48.34
2023-03-27T06:55:08.895Z,49.33
2023-03-27T06:57:52.451Z,48.29
2023-03-27T07:00:25.975Z,44.21
2023-03-27T07:03:12.018Z,39.36
2023-03-27T07:05:57.531Z,42.02
2023-03-27T07:08:29.794Z,44.56
2023-03-27T07:13:40.232Z,47.93
2023-03-27T07:16:15.244Z,48.24
2023-03-27T07:18:42.615Z,49.39
2023-03-27T07:21:10.394Z,50.23
2023-03-27T07:23:37.644Z,50.40
2023-03-27T07:26:08.062Z,50.21
2023-03-27T07:29:11.347Z,50.11
2023-03-27T07:31:55.328Z,50.62
2023-03-27T07:34:35.217Z,49.67
2023-03-27T07:37:22.793Z,49.69
2023-03-27T07:40:13.852Z,49.67
2023-03-27T07:42:45.886Z,48.98
2023-03-27T07:45:20.513Z,49.11
2023-03-27T07:47:49.871Z,48.71
2023-03-27T07:50:20.842Z,48.43
2023-03-27T07:52:50.030Z,49.28
2023-03-27T07:55:19.148Z,48.26
2023-03-27T07:58:01.808Z,48.27
2023-03-27T08:00:34.158Z,47.57
2023-03-27T08:03:16.756Z,48.61
2023-03-27T08:05:56.645Z,48.36
2023-03-27T08:08:26.754Z,48.30
2023-03-27T08:11:00.313Z,46.25
2023-03-27T08:13:31.568Z,47.31
2023-03-27T08:16:07.958Z,46.79
2023-03-27T08:18:37.294Z,47.01
2023-03-27T08:21:08.636Z,46.39
2023-03-27T08:23:38.136Z,45.09
2023-03-27T08:26:17.289Z,44.12
2023-03-27T08:28:54.360Z,44.78
2023-03-27T08:31:25.762Z,44.42
2023-03-27T08:33:57.684Z,44.58
2023-03-27T08:36:28.131Z,42.26
2023-03-27T08:38:55.843Z,41.59
2023-03-27T08:41:40.942Z,41.15
2023-03-27T08:44:16.231Z,41.63
2023-03-27T08:46:55.473Z,41.79
2023-03-27T08:49:26.739Z,40.19
2023-03-27T08:52:24.276Z,41.35
2023-03-27T08:54:59.442Z,41.68
2023-03-27T08:57:37.719Z,41.14
2023-03-27T09:00:27.228Z,41.33
2023-03-27T09:03:29.088Z,40.94
2023-03-27T09:06:03.879Z,40.86
2023-03-27T09:08:34.895Z,40.99
2023-03-27T09:11:21.238Z,38.04
2023-03-27T09:13:55.783Z,37.21
2023-03-27T09:16:28.292Z,37.16
2023-03-27T09:19:36.512Z,37.59
2023-03-27T09:22:41.215Z,37.03
2023-03-27T09:25:38.098Z,35.01
2023-03-27T09:28:30.712Z,32.86
2023-03-27T09:31:19.024Z,31.10
2023-03-27T09:33:46.993Z,30.98
2023-03-27T09:36:13.781Z,31.42
2023-03-27T09:38:50.631Z,31.17
2023-03-27T09:41:27.118Z,30.39
2023-03-27T09:44:09.392Z,29.76
2023-03-27T09:46:46.675Z,24.46
2023-03-27T09:49:18.634Z,20.96
2023-03-27T09:51:53.943Z,18.59
2023-03-27T09:54:54.745Z,18.88
2023-03-27T09:57:40.624Z,23.09
2023-03-27T10:00:30.914Z,28.47
2023-03-27T10:03:08.577Z,34.79
2023-03-27T10:05:39.617Z,36.38
2023-03-27T10:08:32.536Z,36.75
2023-03-27T10:11:16.879Z,34.34
2023-03-27T10:13:54.798Z,28.95
2023-03-27T10:16:25.825Z,24.94
2023-03-27T10:19:18.395Z,18.89
2023-03-27T10:21:45.926Z,16.88
2023-03-27T10:24:33.526Z,18.75
2023-03-27T10:27:35.307Z,19.03
2023-03-27T10:30:33.722Z,17.73
2023-03-27T10:33:15.860Z,20.77
2023-03-27T10:35:55.119Z,23.02
2023-03-27T10:38:32.958Z,23.69
2023-03-27T10:41:28.711Z,20.50
2023-03-27T10:43:59.101Z,16.80
2023-03-27T10:46:29.004Z,14.54
2023-03-27T10:49:25.670Z,15.86
2023-03-27T10:51:57.479Z,18.72
2023-03-27T10:54:42.905Z,21.45
2023-03-27T10:57:22.887Z,23.71
2023-03-27T11:00:01.435Z,25.40
2023-03-27T11:02:57.786Z,27.88
2023-03-27T11:05:40.193Z,28.67
2023-03-27T11:08:25.869Z,28.68
2023-03-27T11:11:07.676Z,29.54
2023-03-27T11:13:43.484Z,31.47
2023-03-27T11:16:27.486Z,32.61
2023-03-27T11:19:26.502Z,34.68
2023-03-27T11:22:16.909Z,33.88
2023-03-27T11:24:55.579Z,30.59
2023-03-27T11:27:58.379Z,23.09
2023-03-27T11:30:56.205Z,20.38
2023-03-27T11:33:34.525Z,18.62
2023-03-27T11:36:20.978Z,16.22
2023-03-27T11:39:09.456Z,15.92
2023-03-27T11:41:36.552Z,15.93
2023-03-27T11:44:04.181Z,16.64
2023-03-27T11:46:49.547Z,19.69
2023-03-27T11:49:37.928Z,19.87
2023-03-27T11:52:40.523Z,16.86
2023-03-27T11:55:31.354Z,17.10
2023-03-27T11:58:29.010Z,16.04
2023-03-27T12:01:16.582Z,15.40
2023-03-27T12:04:09.978Z,14.38
2023-03-27T12:07:47.944Z,13.78
2023-03-27T12:10:29.401Z,13.04
2023-03-27T12:13:47.774Z,11.92
2023-03-27T12:16:35.762Z,11.29
2023-03-27T12:19:29.968Z,10.70
2023-03-27T12:22:24.563Z,11.23
2023-03-27T12:25:37.759Z,10.55
2023-03-27T12:29:23.631Z,10.76
2023-03-27T12:32:22.285Z,12.75
2023-03-27T12:34:58.973Z,14.69
2023-03-27T12:37:47.885Z,17.67
2023-03-27T12:40:37.893Z,23.01
2023-03-27T12:43:23.394Z,26.32
2023-03-27T12:46:24.374Z,29.92
2023-03-27T12:49:05.860Z,34.87
2023-03-27T12:51:48.340Z,34.63
2023-03-27T12:54:28.693Z,34.76
2023-03-27T12:57:21.253Z,33.53
2023-03-27T12:59:53.619Z,32.92
2023-03-27T13:02:40.995Z,32.37
2023-03-27T13:05:24.108Z,33.17
2023-03-27T13:08:19.022Z,33.61
2023-03-27T13:11:27.207Z,32.17
2023-03-27T13:14:32.974Z,32.32
2023-03-27T13:17:37.228Z,32.69
2023-03-27T13:20:35.159Z,33.12
2023-03-27T13:23:43.559Z,33.68
2023-03-27T13:26:46.232Z,32.91
2023-03-27T13:29:23.344Z,33.14
2023-03-27T13:32:31.083Z,32.56
2023-03-27T13:35:41.378Z,30.97
2023-03-27T13:38:12.373Z,30.75
2023-03-27T13:41:36.147Z,31.25
2023-03-27T13:44:12.489Z,32.55
2023-03-27T13:46:48.075Z,35.19
2023-03-27T13:49:18.293Z,39.83
2023-03-27T13:52:44.868Z,44.77
2023-03-27T13:55:46.556Z,45.76
2023-03-27T13:59:22.321Z,46.47
2023-03-27T14:02:22.572Z,45.07
2023-03-27T14:05:18.764Z,44.60
2023-03-27T14:08:02.195Z,44.67
2023-03-27T14:11:08.215Z,46.20
2023-03-27T14:14:03.394Z,45.00
2023-03-27T14:16:39.505Z,42.25
2023-03-27T14:19:38.233Z,42.52
2023-03-27T14:22:20.345Z,40.47
2023-03-27T14:25:00.977Z,41.07
2023-03-27T14:27:35.348Z,42.32
2023-03-27T14:30:07.597Z,40.83
2023-03-27T14:32:36.652Z,40.56
2023-03-27T14:35:07.353Z,39.23
2023-03-27T14:37:41.987Z,38.02
2023-03-27T14:40:37.984Z,37.68
2023-03-27T14:43:07.402Z,38.28
2023-03-27T14:45:40.278Z,37.48
2023-03-27T14:48:23.834Z,38.57
2023-03-27T14:50:58.200Z,37.17
2023-03-27T14:53:31.547Z,36.64
2023-03-27T14:56:28.755Z,36.59
2023-03-27T14:59:13.220Z,36.76
2023-03-27T15:01:52.254Z,36.89
2023-03-27T15:04:19.603Z,33.26
2023-03-27T15:06:50.184Z,30.83
2023-03-27T15:09:44.230Z,31.75
2023-03-27T15:12:28.333Z,32.39
2023-03-27T15:14:59.485Z,32.30
2023-03-27T15:17:28.587Z,32.59
2023-03-27T15:20:14.659Z,31.09
2023-03-27T15:22:47.435Z,32.41
2023-03-27T15:25:20.467Z,31.05
2023-03-27T15:27:53.171Z,31.15
2023-03-27T15:30:27.324Z,31.07
2023-03-27T15:33:02.161Z,31.45
2023-03-27T15:35:35.946Z,31.25
2023-03-27T15:38:06.994Z,31.07
2023-03-27T15:40:38.160Z,30.68
2023-03-27T15:43:27.533Z,31.25
2023-03-27T15:45:58.812Z,30.80
2023-03-27T15:48:37.104Z,30.15
2023-03-27T15:51:06.428Z,30.33
2023-03-27T15:53:40.873Z,30.79
2023-03-27T15:56:15.990Z,30.44
2023-03-27T15:58:59.530Z,31.92
2023-03-27T16:01:33.823Z,31.41
2023-03-27T16:04:06.713Z,32.04
2023-03-27T16:06:37.695Z,31.72
2023-03-27T16:09:10.159Z,32.23
2023-03-27T16:11:40.093Z,31.13
2023-03-27T16:14:32.544Z,31.49
2023-03-27T16:17:11.774Z,30.17
2023-03-27T16:19:58.527Z,30.99
2023-03-27T16:22:34.489Z,30.86
2023-03-27T16:25:05.910Z,30.33
2023-03-27T16:27:38.585Z,30.39
2023-03-27T16:30:39.564Z,30.18
2023-03-27T16:33:16.819Z,30.34
2023-03-27T16:35:44.317Z,32.15
2023-03-27T16:38:12.388Z,35.80
2023-03-27T16:40:41.549Z,36.56
2023-03-27T16:43:08.661Z,36.89
2023-03-27T16:45:37.529Z,36.78
2023-03-27T16:48:05.367Z,36.40
2023-03-27T16:50:32.488Z,37.13
2023-03-27T16:52:59.445Z,37.12
2023-03-27T16:55:26.360Z,37.76
2023-03-27T16:57:54.269Z,38.52
2023-03-27T17:00:21.859Z,38.35
2023-03-27T17:02:48.735Z,39.54
2023-03-27T17:05:16.236Z,39.45
2023-03-27T17:07:44.699Z,39.49
2023-03-27T17:10:11.507Z,39.11
2023-03-27T17:12:41.198Z,39.11
2023-03-27T17:15:08.521Z,39.60
2023-03-27T17:17:35.715Z,39.22
2023-03-27T17:20:03.902Z,38.49
2023-03-27T17:22:31.957Z,38.92
2023-03-27T17:25:01.226Z,38.46
2023-03-27T17:27:28.352Z,38.99
2023-03-27T17:29:57.900Z,39.16
2023-03-27T17:32:27.988Z,38.99
2023-03-27T17:34:55.345Z,39.46
2023-03-27T17:37:23.973Z,39.54
2023-03-27T17:39:51.181Z,40.57
2023-03-27T17:42:18.177Z,40.90
2023-03-27T17:44:45.328Z,42.33
2023-03-27T17:47:12.609Z,42.53
2023-03-27T17:49:39.818Z,43.67
2023-03-27T17:52:11.187Z,44.07
2023-03-27T17:54:38.492Z,44.55
2023-03-27T17:57:05.957Z,44.68
2023-03-27T17:59:32.824Z,44.10
2023-03-27T18:02:00.393Z,43.40
2023-03-27T18:04:27.759Z,42.37
2023-03-27T18:06:54.619Z,41.53
2023-03-27T18:09:21.593Z,40.75
2023-03-27T18:11:52.044Z,40.31
2023-03-27T18:14:18.859Z,39.36
2023-03-27T18:16:46.287Z,38.75
2023-03-27T18:19:13.531Z,39.10
2023-03-27T18:21:40.284Z,38.75
2023-03-27T18:24:07.450Z,38.44
2023-03-27T18:26:34.327Z,38.64
2023-03-27T18:29:01.204Z,38.90
2023-03-27T18:31:28.093Z,38.74
2023-03-27T18:33:55.075Z,39.29
2023-03-27T18:36:22.122Z,39.85
2023-03-27T18:38:50.071Z,40.17
2023-03-27T18:41:16.914Z,40.15
2023-03-27T18:43:43.584Z,40.46
2023-03-27T18:46:16.449Z,40.71
2023-03-27T18:48:44.268Z,41.55
2023-03-27T18:51:12.069Z,41.97
2023-03-27T18:53:38.901Z,42.15
2023-03-27T18:56:06.224Z,42.44
2023-03-27T18:58:32.980Z,42.84
2023-03-27T19:01:00.005Z,43.82
2023-03-27T19:03:30.318Z,44.32
2023-03-27T19:06:01.225Z,44.75
2023-03-27T19:08:27.960Z,45.23
2023-03-27T19:10:55.954Z,45.06
2023-03-27T19:13:42.960Z,45.22
2023-03-27T19:16:30.720Z,45.56
2023-03-27T19:19:36.277Z,45.54
2023-03-27T19:22:26.219Z,44.84
2023-03-27T19:24:59.547Z,45.22
2023-03-27T19:27:28.224Z,46.11
2023-03-27T19:30:07.435Z,46.60
2023-03-27T19:32:34.249Z,46.62
2023-03-27T19:35:01.931Z,46.60
2023-03-27T19:37:29.706Z,46.83
2023-03-27T19:39:57.002Z,46.66
2023-03-27T19:42:23.857Z,46.09
2023-03-27T19:44:50.566Z,45.76
2023-03-27T19:47:17.623Z,46.65
2023-03-27T19:49:44.417Z,46.60
2023-03-27T19:52:18.646Z,46.51
2023-03-27T19:54:46.012Z,47.38
2023-03-27T19:57:12.720Z,47.28
2023-03-27T19:59:39.555Z,47.77
2023-03-27T20:02:06.772Z,47.76
2023-03-27T20:04:33.430Z,47.90
2023-03-27T20:07:02.135Z,48.23
2023-03-27T20:09:29.058Z,48.05
2023-03-27T20:11:57.045Z,49.06
2023-03-27T20:14:23.900Z,49.08
2023-03-27T20:16:51.096Z,48.31
2023-03-27T20:19:18.361Z,47.94
2023-03-27T20:21:46.735Z,47.71
2023-03-27T20:24:17.301Z,48.31
2023-03-27T20:26:52.376Z,47.81
2023-03-27T20:29:24.445Z,47.29
2023-03-27T20:31:51.350Z,46.21
2023-03-27T20:34:20.019Z,46.97
2023-03-27T20:36:47.428Z,45.92
2023-03-27T20:39:22.733Z,45.39
2023-03-27T20:41:51.316Z,45.82
2023-03-27T20:44:20.588Z,45.91
2023-03-27T20:46:51.102Z,45.83
2023-03-27T20:49:40.052Z,46.33
2023-03-27T20:52:08.595Z,46.61
2023-03-27T20:54:35.922Z,45.89
2023-03-27T20:57:03.268Z,45.13
2023-03-27T20:59:31.432Z,45.59
2023-03-27T21:01:59.352Z,45.95
2023-03-27T21:04:28.377Z,46.94
2023-03-27T21:06:55.863Z,46.91
2023-03-27T21:09:23.680Z,46.56
2023-03-27T21:11:53.522Z,47.02
2023-03-27T21:14:22.783Z,47.81
2023-03-27T21:16:49.849Z,46.94
2023-03-27T21:19:17.200Z,46.37
2023-03-27T21:21:45.486Z,45.75
2023-03-27T21:24:13.285Z,46.69
2023-03-27T21:26:40.559Z,47.23
2023-03-27T21:29:10.718Z,47.43
2023-03-27T21:31:39.158Z,47.35
2023-03-27T21:34:06.363Z,46.88
2023-03-27T21:36:33.479Z,46.68
2023-03-27T21:39:01.060Z,47.33
2023-03-27T21:41:27.854Z,47.60
2023-03-27T21:43:54.554Z,48.39
2023-03-27T21:46:22.027Z,48.21
2023-03-27T21:48:52.416Z,47.73
2023-03-27T21:51:19.724Z,48.40
2023-03-27T21:53:46.520Z,47.86
2023-03-27T21:56:13.498Z,47.53
2023-03-27T21:58:40.295Z,48.59
2023-03-27T22:01:07.444Z,48.84
2023-03-27T22:03:34.270Z,48.77
2023-03-27T22:06:11.637Z,49.23
2023-03-27T22:08:40.424Z,48.74
2023-03-27T22:11:10.417Z,48.68
2023-03-27T22:13:37.978Z,49.57
2023-03-27T22:16:13.765Z,49.76
2023-03-27T22:18:41.347Z,50.11
2023-03-27T22:21:19.344Z,50.29
2023-03-27T22:23:46.506Z,49.71
2023-03-27T22:26:13.280Z,49.50
2023-03-27T22:28:40.041Z,49.14
2023-03-27T22:31:07.603Z,49.30
2023-03-27T22:33:35.481Z,49.00
2023-03-27T22:36:03.090Z,49.27
2023-03-27T22:38:31.835Z,48.78
2023-03-27T22:40:59.698Z,49.20
2023-03-27T22:43:29.075Z,49.40
2023-03-27T22:45:56.004Z,49.23
2023-03-27T22:48:22.785Z,48.93
2023-03-27T22:50:56.846Z,49.27
2023-03-27T22:53:25.404Z,49.42
2023-03-27T22:55:54.270Z,49.54
2023-03-27T22:58:22.352Z,49.04
2023-03-27T23:00:51.139Z,48.84
2023-03-27T23:03:19.496Z,49.01
2023-03-27T23:05:54.326Z,49.46
2023-03-27T23:08:24.302Z,49.14
2023-03-27T23:10:59.273Z,49.07
2023-03-27T23:13:28.727Z,49.47
2023-03-27T23:15:56.148Z,50.12
2023-03-27T23:18:27.312Z,50.08
2023-03-27T23:20:58.879Z,49.35
2023-03-27T23:23:27.877Z,49.35
2023-03-27T23:25:56.272Z,50.21
2023-03-27T23:28:23.905Z,50.63
2023-03-27T23:30:59.747Z,50.25
2023-03-27T23:33:28.423Z,50.84
2023-03-27T23:36:02.952Z,50.80
2023-03-27T23:38:30.419Z,51.37
2023-03-27T23:41:00.130Z,51.45
2023-03-27T23:43:29.911Z,51.65
2023-03-27T23:45:59.507Z,51.59
2023-03-27T23:48:27.528Z,51.75
2023-03-27T23:50:56.190Z,51.58
2023-03-27T23:53:27.926Z,51.67
2023-03-27T23:55:56.536Z,51.45
2023-03-27T23:58:28.810Z,52.20
